Time;durP1;ratioP1;P1;durP2;ratioP2;P2;SDS_P1;SDS_P2;PMS_P1;PMS_P2;Temp;Humidity;BMP_temperature;BMP_pressure;BME280_temperature;BME280_humidity;BME280_pressure;Samples;Min_cycle;Max_cycle;Signal;HPM_P1;HPM_P2
2022/07/30 00:00:56;;;;;;;6.43;3.35;;;;;;;17.97;73.21;100732.00;4787651;29;20065;-77
2022/07/30 00:04:43;;;;;;;8.85;3.10;;;;;;;17.87;73.51;100725.78;4797991;29;20168;-77
2022/07/30 00:12:33;;;;;;;5.45;2.95;;;;;;;17.57;73.76;100710.47;4761953;30;19928;-77
2022/07/30 00:26:36;;;;;;;8.93;2.92;;;;;;;17.43;74.96;100706.28;4726960;30;20823;-77
2022/07/30 00:30:46;;;;;;;6.72;2.85;;;;;;;17.64;73.88;100696.69;4718611;30;20118;-77
2022/07/30 00:34:58;;;;;;;6.65;3.13;;;;;;;17.53;73.64;100690.53;4784581;29;20063;-77
2022/07/30 00:38:44;;;;;;;8.85;2.58;;;;;;;17.34;69.96;100691.16;4798755;29;20066;-77
2022/07/30 00:42:19;;;;;;;5.35;3.10;;;;;;;17.48;72.97;100693.53;4799390;29;20128;-77
2022/07/30 00:45:28;;;;;;;7.63;3.20;;;;;;;17.12;75.25;100691.97;4800037;29;20277;-77
2022/07/30 00:49:03;;;;;;;7.80;2.80;;;;;;;17.19;74.66;100694.00;4810301;29;20060;-77
2022/07/30 00:57:59;;;;;;;6.68;2.88;;;;;;;17.02;74.57;100697.13;4880280;29;20119;-77
2022/07/30 01:05:22;;;;;;;7.57;2.72;;;;;;;17.01;73.90;100706.00;4892921;29;20694;-77
2022/07/30 01:08:26;;;;;;;10.88;2.88;;;;;;;16.90;74.02;100714.72;4904611;29;20066;-77
2022/07/30 01:11:37;;;;;;;6.00;3.10;;;;;;;16.80;74.27;100708.47;4915848;29;20392;-77
2022/07/30 01:34:11;;;;;;;;;;;;;;;;;;;;;
2022/07/30 01:43:10;;;;;;;8.23;2.92;;;;;;;16.58;75.64;100729.47;4914830;29;20420;-77
2022/07/30 01:46:19;;;;;;;5.28;2.80;;;;;;;16.45;76.09;100733.03;4903315;29;20051;-77
2022/07/30 01:54:26;;;;;;;6.10;2.78;;;;;;;16.24;76.00;100731.94;4912428;29;20047;-77
2022/07/30 02:03:09;;;;;;;6.10;3.45;;;;;;;16.05;77.22;100732.47;4901263;29;20459;-77
2022/07/30 02:06:57;;;;;;;7.05;3.10;;;;;;;16.06;77.18;100739.41;4871866;29;20107;-77
2022/07/30 02:19:42;;;;;;;10.18;3.22;;;;;;;15.75;78.30;100732.81;4912654;29;20043;-77
2022/07/30 02:22:53;;;;;;;5.70;3.03;;;;;;;15.73;77.92;100729.44;4901365;29;20099;-77
2022/07/30 02:26:02;;;;;;;8.75;3.33;;;;;;;15.67;78.46;100732.53;4924448;29;20062;-76
2022/07/30 03:03:28;;;;;;;7.43;3.03;;;;;;;15.34;78.20;100739.16;4840565;29;20056;-77
2022/07/30 03:06:37;;;;;;;6.07;2.60;;;;;;;15.35;78.04;100738.22;4864504;29;20068;-77
2022/07/30 03:09:46;;;;;;;5.53;3.08;;;;;;;15.28;78.04;100739.56;4864479;29;20075;-76
2022/07/30 03:13:34;;;;;;;4.70;3.03;;;;;;;15.21;78.29;100744.41;4864709;29;20052;-77
2022/07/30 03:17:16;;;;;;;5.47;3.35;;;;;;;15.08;78.43;100747.03;4817761;29;20565;-76
2022/07/30 03:20:29;;;;;;;6.65;2.72;;;;;;;15.03;78.22;100746.53;4860426;29;20405;-76
2022/07/30 03:23:38;;;;;;;6.72;3.03;;;;;;;14.95;78.18;100740.09;4881654;29;20052;-77
2022/07/30 03:26:48;;;;;;;6.85;3.30;;;;;;;14.81;78.38;100749.75;4881608;29;20052;-77
2022/07/30 03:39:58;;;;;;;9.88;3.65;;;;;;;15.03;77.28;100753.59;4854040;29;20080;-77
2022/07/30 03:44:21;;;;;;;;;;;;;;;;;;;;;
2022/07/30 03:54:27;;;;;;;6.95;3.08;;;;;;;14.88;77.69;100773.88;4762332;30;20469;-76
2022/07/30 03:59:00;;;;;;;9.30;3.47;;;;;;;14.85;77.95;100777.53;4771846;29;20126;-76
2022/07/30 04:18:10;;;;;;;6.22;3.17;;;;;;;14.65;79.15;100794.66;4834574;29;20477;-76
2022/07/30 04:51:46;;;;;;;6.40;3.50;;;;;;;14.79;78.66;100837.66;4834242;29;20146;-76
2022/07/30 04:56:45;;;;;;;6.28;3.75;;;;;;;14.59;80.19;100837.16;4834889;29;20057;-76
2022/07/30 05:24:47;;;;;;;7.43;3.45;;;;;;;15.66;74.97;100842.34;4815075;29;20525;-77
2022/07/30 05:38:15;;;;;;;6.75;2.75;;;;;;;15.96;74.08;100844.72;4911807;29;20215;-77
2022/07/30 05:42:27;;;;;;;8.43;3.60;;;;;;;15.98;74.41;100842.78;4910913;29;20132;-78
2022/07/30 05:51:07;;;;;;;8.05;2.85;;;;;;;16.38;72.56;100844.44;4903071;29;20419;-78
2022/07/30 05:59:23;;;;;;;6.18;2.85;;;;;;;16.66;72.10;100838.84;4928435;29;20574;-78
2022/07/30 06:03:14;;;;;;;6.65;3.80;;;;;;;16.46;73.80;100837.66;4911286;29;20411;-77
2022/07/30 06:06:55;;;;;;;;;;;;;;;;;;;;;
2022/07/30 06:16:27;;;;;;;8.05;2.95;;;;;;;16.86;72.35;100847.97;4914341;29;20042;-78
2022/07/30 06:19:38;;;;;;;6.95;3.08;;;;;;;17.03;71.92;100840.59;4566891;29;10001254;-77
2022/07/30 06:33:10;;;;;;;6.43;2.85;;;;;;;17.39;71.45;100837.84;4901753;29;20115;-77
2022/07/30 06:57:51;;;;;;;8.82;3.40;;;;;;;18.34;67.78;100843.69;4851424;29;20336;-78
2022/07/30 07:02:23;;;;;;;10.20;4.30;;;;;;;18.57;65.31;100847.16;4789943;29;20450;-78
2022/07/30 07:11:48;;;;;;;7.70;3.42;;;;;;;18.99;64.13;100846.47;4783784;29;20054;-78
2022/07/30 07:15:23;;;;;;;9.82;3.88;;;;;;;19.09;63.14;100852.69;4777518;29;20113;-77
2022/07/30 07:18:30;;;;;;;15.77;5.03;;;;;;;19.13;62.28;100840.84;4799607;29;20103;-76
2022/07/30 07:21:48;;;;;;;9.95;4.25;;;;;;;19.17;62.35;100841.44;4806935;29;20410;-76
2022/07/30 07:24:54;;;;;;;8.82;3.72;;;;;;;19.26;62.71;100844.16;4881877;29;20046;-76
2022/07/30 07:28:07;;;;;;;7.32;4.15;;;;;;;19.36;62.02;100838.06;4896655;29;20092;-76
2022/07/30 07:47:22;;;;;;;11.15;5.65;;;;;;;19.78;59.94;100843.38;4834700;29;20129;-76
2022/07/30 08:26:47;;;;;;;11.75;4.22;;;;;;;20.58;57.16;100827.50;4893090;29;20048;-77
2022/07/30 08:30:39;;;;;;;8.80;3.95;;;;;;;20.72;56.59;100828.91;4892473;29;20516;-77
2022/07/30 08:39:47;;;;;;;11.05;3.65;;;;;;;20.94;57.04;100825.13;4890083;29;20082;-77
2022/07/30 08:44:24;;;;;;;10.23;3.30;;;;;;;21.16;56.83;100831.97;4851092;29;20063;-77
2022/07/30 09:13:40;;;;;;;10.63;4.53;;;;;;;21.68;53.23;100831.63;4872189;29;20061;-78
2022/07/30 09:23:01;;;;;;;12.70;5.53;;;;;;;21.57;52.92;100828.16;4875868;29;20467;-78
2022/07/30 09:27:20;;;;;;;10.63;5.85;;;;;;;21.59;53.09;100833.34;4855543;29;20155;-79
2022/07/30 09:31:16;;;;;;;12.13;6.05;;;;;;;21.61;51.75;100836.69;4819091;29;20084;-79
2022/07/30 09:35:13;;;;;;;9.93;6.03;;;;;;;21.64;51.75;100835.56;4819680;29;20542;-79
2022/07/30 09:38:07;;;;;;;12.90;5.03;;;;;;;21.73;53.99;100829.34;4971714;23;20055;-74
2022/07/30 09:41:37;;;;;;;9.15;5.10;;;;;;;21.97;52.10;100827.03;4945429;29;20094;-75
2022/07/30 09:44:48;;;;;;;7.72;4.28;;;;;;;22.25;52.45;100827.09;4934600;29;20524;-74
2022/07/30 09:47:51;;;;;;;10.45;5.55;;;;;;;22.18;51.60;100828.69;4930744;29;20046;-76
2022/07/30 09:50:56;;;;;;;11.93;5.25;;;;;;;22.02;51.21;100831.94;4938447;29;20053;-75
2022/07/30 09:54:00;;;;;;;9.93;3.90;;;;;;;21.94;50.64;100837.16;4944708;29;20062;-74
2022/07/30 09:57:09;;;;;;;8.65;4.35;;;;;;;21.96;50.22;100830.69;4936315;29;20560;-71
2022/07/30 10:00:21;;;;;;;8.68;3.90;;;;;;;22.20;49.76;100834.66;4927795;29;20050;-70
2022/07/30 10:03:42;;;;;;;9.45;4.05;;;;;;;22.48;48.07;100832.84;4941607;29;20050;-76
2022/07/30 10:07:17;;;;;;;10.35;4.13;;;;;;;22.59;48.93;100831.78;4917322;29;20532;-75
2022/07/30 10:10:23;;;;;;;8.27;4.15;;;;;;;22.62;48.89;100831.47;4950130;29;20476;-76
2022/07/30 10:13:29;;;;;;;10.60;5.00;;;;;;;22.40;49.70;100835.41;4937488;29;20061;-75
2022/07/30 10:16:33;;;;;;;11.25;4.43;;;;;;;22.31;50.46;100829.16;4927522;29;20085;-76
2022/07/30 10:19:38;;;;;;;8.68;3.88;;;;;;;22.33;50.74;100831.66;4943807;29;20050;-76
2022/07/30 10:23:00;;;;;;;8.90;4.30;;;;;;;22.43;49.80;100827.97;4929211;29;20327;-76
2022/07/30 10:26:34;;;;;;;13.93;4.15;;;;;;;22.69;50.11;100819.25;4929872;29;20071;-74
2022/07/30 10:30:16;;;;;;;10.40;3.58;;;;;;;22.77;49.74;100819.31;4930318;29;20561;-74
2022/07/30 10:33:29;;;;;;;11.18;3.47;;;;;;;22.81;48.85;100820.66;4930361;29;20146;-74
2022/07/30 10:36:34;;;;;;;12.15;4.10;;;;;;;22.87;48.17;100825.38;4945639;29;20054;-74
2022/07/30 10:39:45;;;;;;;9.43;3.28;;;;;;;22.91;48.92;100825.91;4948905;29;20527;-75
2022/07/30 10:42:55;;;;;;;6.60;3.63;;;;;;;23.09;48.80;100821.44;4943850;29;20098;-74
2022/07/30 10:46:11;;;;;;;7.45;3.67;;;;;;;23.11;48.86;100811.47;4930924;29;20046;-75
2022/07/30 10:49:16;;;;;;;6.18;3.42;;;;;;;23.02;47.60;100811.56;4944245;29;20054;-75
2022/07/30 10:52:42;;;;;;;9.20;2.95;;;;;;;23.01;48.09;100812.56;4948526;29;20106;-74
2022/07/30 10:56:13;;;;;;;8.63;3.42;;;;;;;22.94;45.63;100810.50;4949028;29;20114;-75
2022/07/30 10:59:21;;;;;;;7.10;2.77;;;;;;;22.96;46.08;100816.50;4949045;29;20098;-83
2022/07/30 11:02:28;;;;;;;5.63;2.40;;;;;;;23.13;45.12;100809.50;4929834;29;20286;-76
2022/07/30 11:05:31;;;;;;;6.80;2.97;;;;;;;23.35;45.35;100801.97;4917641;29;20046;-78
2022/07/30 11:08:40;;;;;;;5.05;2.70;;;;;;;23.65;44.16;100803.34;4943395;29;20556;-78
2022/07/30 11:11:52;;;;;;;7.20;2.58;;;;;;;23.47;43.15;100810.56;4927861;29;20103;-76
2022/07/30 11:14:58;;;;;;;5.20;2.25;;;;;;;23.51;44.16;100811.91;4944184;29;20560;-74
2022/07/30 11:18:08;;;;;;;7.43;2.15;;;;;;;23.59;45.34;100804.78;4936938;29;20114;-76
2022/07/30 11:21:17;;;;;;;7.82;2.25;;;;;;;23.53;44.25;100801.91;4930128;29;20074;-77
2022/07/30 11:24:47;;;;;;;4.28;1.90;;;;;;;23.35;44.76;100802.78;4937877;29;20053;-78
2022/07/30 11:27:51;;;;;;;5.43;1.90;;;;;;;23.19;44.45;100803.50;4949763;29;20066;-78
2022/07/30 11:30:55;;;;;;;5.30;2.05;;;;;;;23.29;42.94;100802.59;4949908;29;20122;-76
2022/07/30 11:34:17;;;;;;;10.43;2.30;;;;;;;23.49;41.79;100797.91;4949650;29;20417;-77
2022/07/30 11:37:22;;;;;;;7.55;1.95;;;;;;;23.77;42.98;100795.91;4942986;29;20095;-75
2022/07/30 11:40:43;;;;;;;19.90;3.08;;;;;;;23.96;42.62;100795.66;4946608;28;20678;-76
2022/07/30 11:43:47;;;;;;;4.00;1.90;;;;;;;23.97;42.48;100791.16;4940999;29;20094;-78
2022/07/30 11:46:51;;;;;;;8.00;1.95;;;;;;;24.11;42.13;100783.34;4930352;29;20055;-77
2022/07/30 11:49:55;;;;;;;7.32;2.00;;;;;;;24.41;37.09;100794.50;4917472;29;20393;-77
2022/07/30 11:53:01;;;;;;;4.22;1.58;;;;;;;24.59;38.02;100789.84;4924078;29;20048;-77
2022/07/30 11:56:09;;;;;;;7.30;1.50;;;;;;;24.68;38.05;100784.53;4935926;29;20054;-77
2022/07/30 11:59:18;;;;;;;6.65;2.20;;;;;;;24.48;38.97;100790.19;4929250;29;20057;-75
2022/07/30 12:02:27;;;;;;;5.38;1.60;;;;;;;24.70;37.82;100794.06;4917605;29;20051;-75
2022/07/30 12:05:30;;;;;;;7.68;2.30;;;;;;;24.30;36.79;100782.25;4928761;29;20585;-76
2022/07/30 12:08:50;;;;;;;6.90;1.67;;;;;;;24.46;37.63;100777.97;4928361;29;20054;-76
2022/07/30 12:11:55;;;;;;;6.18;2.10;;;;;;;24.77;36.98;100775.50;4928240;29;20054;-73
2022/07/30 12:15:00;;;;;;;9.95;2.30;;;;;;;24.88;37.16;100780.50;4928733;29;20094;-79
2022/07/30 12:18:04;;;;;;;7.90;2.20;;;;;;;24.79;36.37;100776.16;4928300;29;20054;-71
2022/07/30 12:21:14;;;;;;;7.32;1.88;;;;;;;24.72;35.92;100772.47;4928380;29;20095;-70
2022/07/30 12:24:23;;;;;;;6.30;2.15;;;;;;;24.81;34.93;100766.13;4937110;29;20041;-71
2022/07/30 12:27:26;;;;;;;7.90;2.10;;;;;;;24.89;36.22;100771.50;4947682;29;20524;-67
2022/07/30 12:30:30;;;;;;;4.05;1.50;;;;;;;25.09;35.24;100782.69;4947739;29;20488;-70
2022/07/30 12:33:33;;;;;;;5.05;1.98;;;;;;;25.19;32.08;100771.84;4946445;29;20528;-68
2022/07/30 12:36:36;;;;;;;4.25;2.20;;;;;;;25.18;34.05;100776.34;4944391;29;20062;-67
2022/07/30 12:39:40;;;;;;;6.30;1.60;;;;;;;25.42;34.65;100771.97;4933041;29;20200;-65
2022/07/30 12:42:53;;;;;;;4.22;1.45;;;;;;;25.53;30.95;100768.94;4947704;29;20506;-68
2022/07/30 12:45:58;;;;;;;7.28;1.42;;;;;;;26.01;29.82;100780.50;4947404;29;20314;-69
2022/07/30 12:49:04;;;;;;;5.13;1.65;;;;;;;26.11;29.49;100785.63;4947137;29;20041;-69
2022/07/30 12:52:07;;;;;;;3.35;1.20;;;;;;;26.07;30.27;100790.53;4947125;28;20050;-70
2022/07/30 12:55:12;;;;;;;4.05;1.30;;;;;;;26.22;29.79;100769.16;4951292;29;20042;-69
2022/07/30 12:58:15;;;;;;;4.88;1.30;;;;;;;26.35;29.90;100768.56;4953170;29;20141;-69
2022/07/30 13:01:38;;;;;;;3.35;1.10;;;;;;;26.11;29.72;100774.91;4953924;29;20042;-69
2022/07/30 13:04:51;;;;;;;;;;;;;;;26.17;27.72;100776.91;4953854;28;20078;-68
2022/07/30 13:07:56;;;;;;;3.28;1.52;;;;;;;26.25;26.76;100778.69;4934871;29;20514;-68
2022/07/30 13:10:59;;;;;;;4.45;0.82;;;;;;;26.01;25.68;100774.31;4934085;29;20051;-69
2022/07/30 13:14:04;;;;;;;4.00;1.20;;;;;;;26.30;26.42;100765.59;4934936;29;20527;-71
2022/07/30 13:17:09;;;;;;;14.77;7.50;;;;;;;27.05;26.40;100759.50;4935232;29;20110;-75
2022/07/30 13:20:14;;;;;;;15.82;8.05;;;;;;;27.34;26.14;100748.00;4933322;29;20118;-74
2022/07/30 13:23:18;;;;;;;7.47;3.63;;;;;;;28.03;26.32;100748.53;4935016;29;20057;-75
2022/07/30 13:26:21;;;;;;;4.00;1.52;;;;;;;28.49;25.45;100748.25;4934381;29;20059;-72
2022/07/30 13:29:25;;;;;;;2.78;1.23;;;;;;;28.01;24.00;100750.56;4934260;29;20431;-75
2022/07/30 13:32:28;;;;;;;6.75;1.42;;;;;;;27.38;24.05;100754.69;4933876;29;20122;-74
2022/07/30 13:35:32;;;;;;;6.28;1.98;;;;;;;28.13;24.23;100755.47;4934734;29;20413;-82
2022/07/30 13:38:35;;;;;;;6.25;3.00;;;;;;;28.18;26.89;100745.00;4923078;29;20181;-79
2022/07/30 13:41:40;;;;;;;5.85;1.98;;;;;;;27.96;23.11;100742.25;4933952;29;20074;-77
2022/07/30 13:44:44;;;;;;;2.92;1.00;;;;;;;28.48;19.05;100745.72;4925450;29;20838;-76
2022/07/30 13:47:47;;;;;;;6.15;1.15;;;;;;;28.40;18.69;100749.41;4945985;29;20106;-77
2022/07/30 13:50:52;;;;;;;3.17;1.38;;;;;;;28.85;19.15;100747.31;4955933;28;20098;-81
2022/07/30 13:53:58;;;;;;;3.58;1.17;;;;;;;28.72;18.62;100747.22;4955132;29;20113;-75
2022/07/30 13:57:04;;;;;;;2.58;1.20;;;;;;;29.88;17.38;100737.63;4955223;29;20050;-74
2022/07/30 14:00:09;;;;;;;2.90;1.05;;;;;;;30.29;16.33;100744.84;4943645;28;20524;-72
2022/07/30 14:03:14;;;;;;;4.35;1.30;;;;;;;30.95;15.87;100737.84;4954875;29;20119;-75
2022/07/30 14:06:21;;;;;;;4.43;1.48;;;;;;;31.30;14.73;100724.88;4943691;29;20499;-73
2022/07/30 14:09:27;;;;;;;2.90;1.30;;;;;;;32.69;13.03;100725.28;4937247;29;20058;-73
2022/07/30 14:12:30;;;;;;;2.75;1.27;;;;;;;34.20;11.88;100715.69;4953140;29;20143;-71
2022/07/30 14:15:35;;;;;;;2.70;1.23;;;;;;;35.00;10.05;100719.84;4951204;29;20053;-75
2022/07/30 14:18:40;;;;;;;4.47;1.10;;;;;;;34.03;11.81;100718.25;4935552;29;20102;-74
2022/07/30 14:21:44;;;;;;;2.42;1.05;;;;;;;35.80;11.30;100706.38;4952883;29;20039;-75
2022/07/30 14:24:47;;;;;;;2.95;1.30;;;;;;;37.83;11.23;100706.22;4930104;29;20043;-74
2022/07/30 14:27:52;;;;;;;2.72;1.23;;;;;;;38.15;10.25;100707.13;4952855;29;20066;-75
2022/07/30 14:30:55;;;;;;;3.35;1.25;;;;;;;37.58;12.19;100693.94;4952683;29;20188;-74
2022/07/30 14:34:01;;;;;;;3.92;1.35;;;;;;;35.05;13.46;100703.69;4947662;29;20055;-74
2022/07/30 14:37:04;;;;;;;2.35;1.00;;;;;;;33.17;15.39;100714.66;4921560;29;20122;-74
2022/07/30 14:40:10;;;;;;;2.28;1.30;;;;;;;34.99;14.16;100710.06;4938090;29;20112;-74
2022/07/30 14:43:15;;;;;;;5.28;1.42;;;;;;;32.81;16.26;100715.41;4952383;29;20034;-74
2022/07/30 14:46:19;;;;;;;2.65;0.90;;;;;;;33.04;16.52;100704.78;4952574;29;20519;-74
2022/07/30 14:49:22;;;;;;;1.95;0.90;;;;;;;30.89;18.91;100707.13;4952629;29;20046;-74
2022/07/30 14:52:27;;;;;;;2.92;1.05;;;;;;;28.98;21.19;100704.34;4950565;29;20116;-74
2022/07/30 14:55:31;;;;;;;2.53;1.33;;;;;;;30.88;18.62;100715.41;4952911;29;20054;-71
2022/07/30 14:58:35;;;;;;;2.13;0.90;;;;;;;32.44;17.13;100709.88;4952475;29;20109;-73
2022/07/30 15:01:40;;;;;;;4.43;1.13;;;;;;;34.57;16.41;100713.69;4952251;29;20416;-73
2022/07/30 15:04:45;;;;;;;2.78;1.30;;;;;;;35.52;15.34;100709.06;4951856;29;20054;-74
2022/07/30 15:07:49;;;;;;;2.00;0.93;;;;;;;33.29;16.41;100706.63;4949491;29;20564;-74
2022/07/30 15:10:52;;;;;;;4.93;1.27;;;;;;;34.08;16.31;100709.41;4952875;29;20046;-74
2022/07/30 15:13:55;;;;;;;4.95;1.20;;;;;;;34.37;16.42;100713.16;4938121;29;20112;-74
2022/07/30 15:16:59;;;;;;;4.68;1.30;;;;;;;34.47;16.43;100703.38;4949054;28;20268;-74
2022/07/30 15:20:03;;;;;;;3.08;1.58;;;;;;;33.66;16.90;100723.69;4949964;29;20579;-74
2022/07/30 15:23:06;;;;;;;3.67;1.50;;;;;;;32.44;18.19;100715.28;4950741;29;20512;-73
2022/07/30 15:26:10;;;;;;;3.22;1.40;;;;;;;34.09;16.79;100705.66;4951658;29;20069;-74
2022/07/30 15:29:15;;;;;;;3.85;1.88;;;;;;;35.90;16.21;100713.06;4949384;29;20054;-74
2022/07/30 15:32:19;;;;;;;3.92;1.50;;;;;;;34.32;17.00;100713.84;4950802;29;20131;-74
2022/07/30 15:35:22;;;;;;;4.53;1.80;;;;;;;33.36;18.35;100718.22;4947840;29;20130;-74
2022/07/30 15:38:27;;;;;;;3.08;1.42;;;;;;;33.34;18.04;100718.44;4938177;29;20485;-74
2022/07/30 15:41:31;;;;;;;4.38;1.75;;;;;;;33.42;17.96;100719.19;4942434;29;20051;-74
2022/07/30 15:44:36;;;;;;;3.58;1.67;;;;;;;33.08;19.11;100724.94;4948464;29;20119;-74
2022/07/30 15:47:40;;;;;;;3.42;1.70;;;;;;;32.78;19.30;100718.56;4948876;29;20054;-74
2022/07/30 15:50:43;;;;;;;3.40;1.90;;;;;;;34.68;17.58;100714.75;4932780;29;20082;-74
2022/07/30 15:53:47;;;;;;;3.15;1.83;;;;;;;36.25;17.11;100704.75;4940909;29;20054;-74
2022/07/30 15:56:52;;;;;;;2.80;1.60;;;;;;;35.52;17.18;100709.06;4951769;29;20049;-74
2022/07/30 15:59:56;;;;;;;2.75;1.60;;;;;;;35.01;17.42;100707.94;4951131;29;20086;-74
2022/07/30 16:03:00;;;;;;;4.53;1.52;;;;;;;33.85;18.47;100716.38;4951189;29;20520;-74
2022/07/30 16:06:04;;;;;;;3.80;1.80;;;;;;;34.36;18.32;100708.78;4950959;29;20113;-74
2022/07/30 16:09:08;;;;;;;4.03;1.92;;;;;;;34.28;19.18;100711.84;4951266;29;20109;-74
2022/07/30 16:12:12;;;;;;;5.53;1.83;;;;;;;33.15;19.48;100715.94;4951487;29;20591;-74
2022/07/30 16:15:15;;;;;;;10.23;1.85;;;;;;;34.45;18.96;100710.91;4950971;29;20046;-74
2022/07/30 16:18:18;;;;;;;5.97;2.20;;;;;;;35.38;18.52;100692.16;4932064;29;20095;-74
2022/07/30 16:21:22;;;;;;;5.68;2.00;;;;;;;35.29;17.77;100694.47;4931709;29;20047;-74
2022/07/30 16:24:25;;;;;;;4.50;1.90;;;;;;;35.23;18.47;100700.00;4931476;29;20074;-76
2022/07/30 16:27:29;;;;;;;3.03;1.55;;;;;;;32.50;20.99;100698.16;4942105;28;20054;-74
2022/07/30 16:30:33;;;;;;;5.60;3.22;;;;;;;30.27;24.31;100702.91;4951476;29;20041;-74
2022/07/30 16:33:37;;;;;;;4.18;2.13;;;;;;;29.54;25.43;100689.16;4951288;29;20120;-73
2022/07/30 16:36:43;;;;;;;5.78;1.98;;;;;;;29.70;25.41;100701.47;4931933;29;20119;-74
2022/07/30 16:39:47;;;;;;;5.10;2.20;;;;;;;28.78;26.07;100698.00;4938874;29;20476;-73
2022/07/30 16:42:51;;;;;;;4.65;1.80;;;;;;;28.90;26.39;100707.19;4942932;29;20564;-74
2022/07/30 16:45:54;;;;;;;5.25;3.58;;;;;;;28.48;27.03;100703.53;4931044;29;20075;-75
2022/07/30 16:49:01;;;;;;;3.05;1.65;;;;;;;28.39;27.34;100717.25;4942954;29;20068;-74
2022/07/30 16:52:04;;;;;;;4.45;2.05;;;;;;;28.64;27.55;100717.75;4949049;29;20690;-74
2022/07/30 16:55:08;;;;;;;4.30;2.28;;;;;;;28.27;28.01;100715.09;4950510;29;20054;-73
2022/07/30 16:58:12;;;;;;;5.03;2.00;;;;;;;28.21;27.89;100712.34;4949942;29;20050;-73
2022/07/30 17:01:15;;;;;;;5.70;2.35;;;;;;;27.94;28.65;100714.72;4931447;29;20086;-73
2022/07/30 17:04:19;;;;;;;6.63;2.13;;;;;;;27.99;28.48;100715.00;4931722;29;20081;-73
2022/07/30 17:07:22;;;;;;;3.92;1.77;;;;;;;27.82;28.76;100721.59;4950118;29;20046;-73
2022/07/30 17:10:26;;;;;;;6.05;2.28;;;;;;;27.62;28.79;100718.66;4950747;29;20058;-73
2022/07/30 17:13:30;;;;;;;4.70;1.70;;;;;;;27.54;29.88;100716.91;4949963;29;20190;-73
2022/07/30 17:16:34;;;;;;;4.32;2.13;;;;;;;27.47;29.31;100724.03;4936402;29;20108;-73
2022/07/30 17:19:38;;;;;;;5.75;2.13;;;;;;;27.23;29.09;100722.47;4947890;29;20094;-73
2022/07/30 17:22:41;;;;;;;4.75;1.80;;;;;;;27.08;30.11;100722.41;4950551;29;20089;-73
2022/07/30 17:25:44;;;;;;;5.30;1.88;;;;;;;26.75;30.26;100721.88;4942078;29;20046;-73
2022/07/30 17:28:48;;;;;;;4.13;1.80;;;;;;;26.92;30.48;100732.47;4949571;29;20047;-73
2022/07/30 17:31:51;;;;;;;5.82;2.60;;;;;;;26.82;30.91;100732.72;4949891;29;20102;-73
2022/07/30 17:34:55;;;;;;;4.85;1.83;;;;;;;26.83;31.35;100729.00;4950577;29;20858;-73
2022/07/30 17:37:58;;;;;;;4.68;1.83;;;;;;;26.47;32.00;100734.97;4949671;29;20054;-73
2022/07/30 17:41:02;;;;;;;4.88;1.98;;;;;;;26.47;30.98;100740.34;4953214;29;20050;-73
2022/07/30 17:44:05;;;;;;;4.07;2.00;;;;;;;26.40;31.73;100739.41;4953818;29;20066;-73
2022/07/30 17:47:10;;;;;;;5.65;1.92;;;;;;;26.42;31.71;100742.75;4953860;29;20045;-73
2022/07/30 17:50:13;;;;;;;4.45;1.85;;;;;;;26.42;31.81;100748.09;4954257;29;20112;-73
2022/07/30 17:53:16;;;;;;;7.18;2.00;;;;;;;26.09;32.65;100740.25;4953550;29;20126;-73
2022/07/30 17:56:19;;;;;;;6.05;1.98;;;;;;;26.01;32.07;100743.00;4953831;29;20077;-74
2022/07/30 17:59:23;;;;;;;6.70;2.45;;;;;;;26.12;32.79;100737.22;4953759;29;20528;-73
2022/07/30 18:02:26;;;;;;;3.78;1.73;;;;;;;26.12;33.33;100741.75;4939789;29;20525;-73
2022/07/30 18:05:30;;;;;;;5.20;2.00;;;;;;;26.14;33.80;100745.91;4935462;29;20062;-73
2022/07/30 18:08:34;;;;;;;8.13;2.20;;;;;;;26.33;33.28;100755.34;4934755;29;20051;-73
2022/07/30 18:11:37;;;;;;;8.18;5.68;;;;;;;26.11;34.31;100754.31;4946488;29;20050;-73
2022/07/30 18:14:40;;;;;;;10.05;6.47;;;;;;;25.76;35.82;100758.31;4953162;29;20162;-72
2022/07/30 18:17:45;;;;;;;7.75;3.05;;;;;;;25.69;35.52;100757.34;4934234;29;20059;-71
2022/07/30 18:20:49;;;;;;;6.95;2.65;;;;;;;25.40;38.27;100757.91;4937472;29;20042;-69
2022/07/30 18:23:55;;;;;;;5.63;2.08;;;;;;;25.49;35.94;100759.56;4934690;29;20520;-71
2022/07/30 18:26:58;;;;;;;5.05;1.85;;;;;;;25.49;36.28;100771.13;4934413;29;20131;-68
2022/07/30 18:30:03;;;;;;;10.68;2.10;;;;;;;25.43;37.84;100771.81;4934159;29;20177;-71
2022/07/30 18:33:06;;;;;;;11.57;2.67;;;;;;;25.40;38.40;100776.63;4933673;29;20051;-77
2022/07/30 18:36:12;;;;;;;7.50;2.20;;;;;;;25.20;39.45;100779.69;4933670;29;20042;-76
2022/07/30 18:39:16;;;;;;;7.13;1.77;;;;;;;25.11;39.41;100779.81;4933510;29;20110;-80
2022/07/30 18:42:19;;;;;;;5.95;2.22;;;;;;;24.67;39.79;100782.84;4933939;29;20038;-85
2022/07/30 18:45:24;;;;;;;5.05;1.95;;;;;;;24.49;40.78;100788.34;4927518;29;20046;-78
2022/07/30 18:48:28;;;;;;;12.23;1.70;;;;;;;24.34;41.18;100782.75;4934248;29;20062;-84
2022/07/30 18:51:58;;;;;;;;;;;;;;;;;;;;;
2022/07/30 18:55:15;;;;;;;5.60;1.38;;;;;;;24.41;40.54;100794.50;4933879;29;20417;-84
2022/07/30 18:58:23;;;;;;;6.50;1.80;;;;;;;23.89;42.79;100790.13;4922610;29;20051;-76
2022/07/30 19:01:26;;;;;;;6.00;1.63;;;;;;;23.75;43.19;100803.25;4933497;29;20055;-78
2022/07/30 19:04:31;;;;;;;5.28;1.60;;;;;;;23.59;43.88;100791.44;4933391;29;20046;-75
2022/07/30 19:07:35;;;;;;;4.50;2.03;;;;;;;23.31;44.25;100793.44;4933556;29;20051;-76
2022/07/30 19:10:38;;;;;;;6.43;1.85;;;;;;;23.16;44.79;100803.00;4933357;29;20090;-77
2022/07/30 19:13:42;;;;;;;10.05;6.25;;;;;;;23.06;44.74;100812.91;4933548;29;20050;-77
2022/07/30 19:16:45;;;;;;;9.15;4.60;;;;;;;23.01;45.35;100815.22;4944779;29;20073;-76
2022/07/30 19:23:50;;;;;;;6.30;3.17;;;;;;;22.92;44.43;100823.09;4932331;29;20066;-73
2022/07/30 19:26:55;;;;;;;4.68;2.30;;;;;;;22.69;44.69;100824.56;4937970;29;20565;-76
2022/07/30 19:29:58;;;;;;;8.45;2.53;;;;;;;22.76;44.67;100841.63;4933009;29;20537;-75
2022/07/30 19:33:04;;;;;;;4.13;2.10;;;;;;;22.84;43.69;100841.69;4933224;29;20097;-75
2022/07/30 19:36:08;;;;;;;4.80;1.50;;;;;;;22.87;42.04;100849.38;4948963;29;20062;-72
2022/07/30 19:39:14;;;;;;;3.47;1.48;;;;;;;23.15;41.83;100849.34;4951879;29;20074;-74
2022/07/30 19:42:17;;;;;;;5.82;2.08;;;;;;;22.87;41.59;100846.72;4938914;29;20561;-74
2022/07/30 19:45:22;;;;;;;10.57;4.03;;;;;;;22.92;42.00;100859.59;4949988;29;20175;-75
2022/07/30 19:48:25;;;;;;;7.38;2.40;;;;;;;22.77;43.64;100845.13;4949342;29;20049;-76
2022/07/30 19:51:29;;;;;;;6.88;1.77;;;;;;;22.26;46.08;100858.88;4949399;29;20054;-75
2022/07/30 19:54:33;;;;;;;8.05;1.92;;;;;;;22.16;47.71;100860.75;4927756;29;20155;-74
2022/07/30 19:57:37;;;;;;;7.55;1.80;;;;;;;22.07;51.73;100864.28;4951056;29;20046;-75
2022/07/30 20:00:40;;;;;;;4.75;2.08;;;;;;;22.02;52.27;100869.22;4937568;29;20524;-75
2022/07/30 20:03:44;;;;;;;5.82;2.45;;;;;;;21.79;52.84;100858.94;4950419;28;20042;-76
2022/07/30 20:06:49;;;;;;;6.40;2.45;;;;;;;21.76;52.50;100863.66;4936313;29;20054;-73
2022/07/30 20:09:52;;;;;;;5.45;2.72;;;;;;;21.61;52.15;100862.47;4932265;29;20082;-74
2022/07/30 20:12:56;;;;;;;6.53;2.58;;;;;;;21.62;52.12;100864.97;4932489;29;20134;-74
2022/07/30 20:16:01;;;;;;;5.78;2.72;;;;;;;21.73;51.37;100858.63;4936105;29;20077;-73
2022/07/30 20:19:10;;;;;;;7.20;2.85;;;;;;;21.69;51.78;100860.75;4951473;29;20111;-73
2022/07/30 20:22:15;;;;;;;8.65;3.20;;;;;;;21.40;52.44;100865.28;4951513;29;20098;-73
2022/07/30 20:25:18;;;;;;;4.85;2.28;;;;;;;21.23;52.70;100858.84;4950705;29;20511;-73
2022/07/30 20:28:21;;;;;;;10.05;3.45;;;;;;;21.27;52.87;100865.56;4931735;29;20458;-73
2022/07/30 20:31:25;;;;;;;4.55;2.10;;;;;;;21.33;52.91;100870.31;4931065;29;20107;-72
2022/07/30 20:34:31;;;;;;;7.32;2.83;;;;;;;21.35;52.92;100877.22;4932428;29;20046;-79
2022/07/30 20:38:36;;;;;;;;;;;;;;;;;;;;;
2022/07/30 20:42:41;;;;;;;;;;;;;;;;;;;;;
2022/07/30 21:01:19;;;;;;;5.20;1.85;;;;;;;21.38;52.42;100897.38;5085912;27;20381;-81
2022/07/30 21:04:24;;;;;;;8.15;2.45;;;;;;;21.35;53.41;100900.31;5087110;28;20043;-80
2022/07/30 21:07:27;;;;;;;6.35;2.22;;;;;;;21.29;53.44;100895.53;5083809;28;20047;-79